createdAt,value
2023-02-07T00:00:21.849Z,95383.25
2023-02-07T00:02:49.312Z,95387.91
2023-02-07T00:05:16.662Z,95394.56
2023-02-07T00:07:43.496Z,95397.16
2023-02-07T00:10:10.284Z,95394.38
2023-02-07T00:12:36.969Z,95392.22
2023-02-07T00:15:04.686Z,95399.84
2023-02-07T00:17:31.449Z,95395.97
2023-02-07T00:19:58.064Z,95403.34
2023-02-07T00:22:24.826Z,95407.59
2023-02-07T00:24:51.783Z,95411.84
2023-02-07T00:27:18.506Z,95406.81
2023-02-07T00:29:45.155Z,95409.72
2023-02-07T00:32:12.021Z,95414.97
2023-02-07T00:34:38.769Z,95410.63
2023-02-07T00:37:06.433Z,95418.47
2023-02-07T00:39:33.075Z,95427.84
2023-02-07T00:42:00.218Z,95420.69
2023-02-07T00:44:27.016Z,95419.28
2023-02-07T00:46:53.848Z,95427.00
2023-02-07T00:49:20.680Z,95435.44
2023-02-07T00:51:47.330Z,95422.84
2023-02-07T00:54:14.084Z,95414.75
2023-02-07T00:56:40.976Z,95416.56
2023-02-07T00:59:07.744Z,95414.88
2023-02-07T01:01:34.577Z,95409.53
2023-02-07T01:04:01.464Z,95406.19
2023-02-07T01:06:29.489Z,95406.22
2023-02-07T01:08:58.069Z,95407.81
2023-02-07T01:11:24.732Z,95405.13
2023-02-07T01:13:51.749Z,95410.00
2023-02-07T01:16:20.728Z,95405.66
2023-02-07T01:18:47.811Z,95411.63
2023-02-07T01:21:19.859Z,95414.38
2023-02-07T01:23:46.900Z,95407.00
2023-02-07T01:26:13.584Z,95405.78
2023-02-07T01:28:40.304Z,95408.75
2023-02-07T01:31:11.915Z,95398.00
2023-02-07T01:33:39.080Z,95391.56
2023-02-07T01:36:14.421Z,95383.63
2023-02-07T01:38:42.828Z,95388.38
2023-02-07T01:41:11.488Z,95386.56
2023-02-07T01:44:01.755Z,95386.59
2023-02-07T01:46:30.410Z,95387.75
2023-02-07T01:49:01.633Z,95374.22
2023-02-07T01:51:30.143Z,95383.53
2023-02-07T01:53:59.571Z,95394.84
2023-02-07T01:56:32.054Z,95390.22
2023-02-07T01:59:00.749Z,95391.56
2023-02-07T02:01:27.489Z,95390.59
2023-02-07T02:03:56.325Z,95396.91
2023-02-07T02:06:26.770Z,95391.72
2023-02-07T02:08:58.852Z,95388.06
2023-02-07T02:11:46.946Z,95393.88
2023-02-07T02:14:44.670Z,95393.34
2023-02-07T02:17:31.547Z,95393.25
2023-02-07T02:20:44.593Z,95391.16
2023-02-07T02:23:41.894Z,95399.47
2023-02-07T02:26:40.471Z,95393.06
2023-02-07T02:29:25.461Z,95392.91
2023-02-07T02:32:21.907Z,95397.47
2023-02-07T02:35:07.547Z,95402.84
2023-02-07T02:37:42.730Z,95399.94
2023-02-07T02:40:19.186Z,95402.41
2023-02-07T02:43:04.445Z,95407.22
2023-02-07T02:45:38.996Z,95403.19
2023-02-07T02:48:10.887Z,95402.84
2023-02-07T02:50:38.150Z,95412.16
2023-02-07T02:53:05.810Z,95412.25
2023-02-07T02:55:54.180Z,95409.13
2023-02-07T02:58:34.776Z,95419.38
2023-02-07T03:01:02.161Z,95416.84
2023-02-07T03:03:41.205Z,95416.44
2023-02-07T03:06:29.674Z,95423.72
2023-02-07T03:09:10.048Z,95419.84
2023-02-07T03:11:43.788Z,95423.69
2023-02-07T03:14:30.571Z,95422.97
2023-02-07T03:17:39.142Z,95425.19
2023-02-07T03:20:14.455Z,95419.22
2023-02-07T03:22:43.575Z,95421.84
2023-02-07T03:25:15.003Z,95425.63
2023-02-07T03:27:42.684Z,95424.22
2023-02-07T03:30:12.669Z,95423.44
2023-02-07T03:32:45.320Z,95416.84
2023-02-07T03:35:32.552Z,95421.41
2023-02-07T03:38:01.801Z,95418.63
2023-02-07T03:40:46.530Z,95421.09
2023-02-07T03:43:13.101Z,95419.53
2023-02-07T03:45:40.428Z,95420.53
2023-02-07T03:48:07.142Z,95420.41
2023-02-07T03:50:33.845Z,95415.28
2023-02-07T03:53:00.593Z,95414.38
2023-02-07T03:55:28.347Z,95420.72
2023-02-07T03:57:54.970Z,95415.97
2023-02-07T04:00:21.727Z,95414.50
2023-02-07T04:02:48.420Z,95419.41
2023-02-07T04:05:15.198Z,95418.13
2023-02-07T04:07:41.851Z,95421.50
2023-02-07T04:10:10.665Z,95418.94
2023-02-07T04:12:37.248Z,95416.88
2023-02-07T04:15:06.141Z,95421.81
2023-02-07T04:17:33.477Z,95407.53
2023-02-07T04:20:02.525Z,95405.38
2023-02-07T04:22:29.660Z,95408.13
2023-02-07T04:24:56.803Z,95410.66
2023-02-07T04:27:24.107Z,95414.53
2023-02-07T04:29:50.861Z,95418.09
2023-02-07T04:32:17.507Z,95422.16
2023-02-07T04:34:44.233Z,95414.38
2023-02-07T04:37:10.892Z,95421.72
2023-02-07T04:39:37.598Z,95419.84
2023-02-07T04:42:05.382Z,95433.19
2023-02-07T04:44:32.155Z,95424.94
2023-02-07T04:46:58.886Z,95423.09
2023-02-07T04:49:25.507Z,95435.97
2023-02-07T04:51:52.705Z,95435.03
2023-02-07T04:54:20.146Z,95429.25
2023-02-07T04:56:46.924Z,95429.59
2023-02-07T04:59:13.530Z,95439.16
2023-02-07T05:01:40.199Z,95446.13
2023-02-07T05:04:06.857Z,95451.69
2023-02-07T05:06:33.498Z,95459.50
2023-02-07T05:09:00.106Z,95450.75
2023-02-07T05:11:26.785Z,95462.50
2023-02-07T05:13:53.469Z,95463.22
2023-02-07T05:16:20.193Z,95458.38
2023-02-07T05:18:46.853Z,95470.41
2023-02-07T05:21:13.639Z,95466.63
2023-02-07T05:23:40.204Z,95458.69
2023-02-07T05:26:06.928Z,95465.09
2023-02-07T05:28:33.753Z,95468.00
2023-02-07T05:31:00.661Z,95479.19
2023-02-07T05:33:27.413Z,95472.88
2023-02-07T05:35:54.002Z,95481.56
2023-02-07T05:38:20.904Z,95478.22
2023-02-07T05:40:48.541Z,95479.97
2023-02-07T05:43:15.411Z,95487.19
2023-02-07T05:45:42.297Z,95486.50
2023-02-07T05:48:08.981Z,95490.84
2023-02-07T05:50:35.715Z,95493.44
2023-02-07T05:53:04.247Z,95497.94
2023-02-07T05:55:31.153Z,95499.06
2023-02-07T05:57:58.150Z,95496.19
2023-02-07T06:00:24.984Z,95494.44
2023-02-07T06:02:51.675Z,95496.75
2023-02-07T06:05:20.474Z,95503.09
2023-02-07T06:07:47.585Z,95496.44
2023-02-07T06:10:15.080Z,95492.06
2023-02-07T06:12:42.039Z,95496.75
2023-02-07T06:15:09.449Z,95498.38
2023-02-07T06:17:36.053Z,95508.91
2023-02-07T06:20:03.368Z,95508.41
2023-02-07T06:22:30.034Z,95509.66
2023-02-07T06:24:56.725Z,95514.47
2023-02-07T06:27:23.340Z,95510.97
2023-02-07T06:29:50.025Z,95512.81
2023-02-07T06:32:16.735Z,95513.06
2023-02-07T06:34:43.422Z,95516.13
2023-02-07T06:37:10.070Z,95530.19
2023-02-07T06:39:36.706Z,95532.59
2023-02-07T06:42:03.554Z,95531.06
2023-02-07T06:44:30.172Z,95528.34
2023-02-07T06:46:56.781Z,95531.41
2023-02-07T06:49:23.398Z,95536.09
2023-02-07T06:51:50.206Z,95535.25
2023-02-07T06:54:17.105Z,95531.63
2023-02-07T06:56:43.747Z,95539.75
2023-02-07T06:59:10.524Z,95534.91
2023-02-07T07:01:37.187Z,95535.53
2023-02-07T07:04:03.947Z,95531.56
2023-02-07T07:06:31.180Z,95542.78
2023-02-07T07:08:57.871Z,95539.97
2023-02-07T07:11:24.518Z,95530.50
2023-02-07T07:13:51.142Z,95537.06
2023-02-07T07:16:17.874Z,95538.81
2023-02-07T07:18:44.576Z,95545.06
2023-02-07T07:21:12.709Z,95540.34
2023-02-07T07:23:39.420Z,95549.69
2023-02-07T07:26:06.184Z,95538.41
2023-02-07T07:28:32.910Z,95535.38
2023-02-07T07:31:06.788Z,95536.84
2023-02-07T07:33:34.193Z,95534.66
2023-02-07T07:36:01.851Z,95530.16
2023-02-07T07:38:28.839Z,95536.28
2023-02-07T07:40:55.539Z,95527.19
2023-02-07T07:43:22.519Z,95516.94
2023-02-07T07:45:54.181Z,95524.03
2023-02-07T07:48:22.230Z,95528.09
2023-02-07T07:50:49.009Z,95521.03
2023-02-07T07:53:16.533Z,95521.16
2023-02-07T07:55:43.175Z,95543.31
2023-02-07T07:58:09.837Z,95531.81
2023-02-07T08:00:36.647Z,95533.25
2023-02-07T08:03:03.359Z,95531.78
2023-02-07T08:05:30.082Z,95533.34
2023-02-07T08:07:56.714Z,95532.34
2023-02-07T08:10:23.364Z,95530.88
2023-02-07T08:12:49.914Z,95532.13
2023-02-07T08:15:16.663Z,95533.38
2023-02-07T08:17:43.296Z,95532.94
2023-02-07T08:20:11.798Z,95532.56
2023-02-07T08:22:39.743Z,95533.06
2023-02-07T08:25:07.356Z,95524.75
2023-02-07T08:27:33.967Z,95532.50
2023-02-07T08:30:00.897Z,95519.88
2023-02-07T08:32:29.537Z,95519.34
2023-02-07T08:34:56.203Z,95525.31
2023-02-07T08:37:23.536Z,95517.19
2023-02-07T08:39:52.943Z,95513.66
2023-02-07T08:42:20.691Z,95523.34
2023-02-07T08:44:48.542Z,95524.00
2023-02-07T08:47:17.905Z,95521.97
2023-02-07T08:49:44.848Z,95532.41
2023-02-07T08:52:12.005Z,95515.78
2023-02-07T08:54:38.606Z,95530.66
2023-02-07T08:57:05.356Z,95530.31
2023-02-07T08:59:31.993Z,95526.88
2023-02-07T09:01:58.624Z,95535.69
2023-02-07T09:04:25.230Z,95540.47
2023-02-07T09:06:51.846Z,95526.25
2023-02-07T09:09:18.879Z,95530.88
2023-02-07T09:11:45.692Z,95536.28
2023-02-07T09:14:12.488Z,95534.31
2023-02-07T09:16:39.246Z,95528.91
2023-02-07T09:19:05.934Z,95527.53
2023-02-07T09:21:33.387Z,95531.28
2023-02-07T09:24:00.124Z,95536.59
2023-02-07T09:26:26.893Z,95539.38
2023-02-07T09:28:53.606Z,95535.69
2023-02-07T09:31:21.826Z,95533.19
2023-02-07T09:33:48.545Z,95533.97
2023-02-07T09:36:33.593Z,95525.59
2023-02-07T09:39:00.988Z,95520.28
2023-02-07T09:41:33.344Z,95525.06
2023-02-07T09:44:10.116Z,95525.06
2023-02-07T09:46:45.233Z,95521.84
2023-02-07T09:49:21.116Z,95521.09
2023-02-07T09:51:49.910Z,95523.38
2023-02-07T09:54:39.597Z,95521.75
2023-02-07T09:57:13.717Z,95513.38
2023-02-07T10:00:24.237Z,95504.25
2023-02-07T10:03:13.637Z,95504.84
2023-02-07T10:05:45.802Z,95511.69
2023-02-07T10:08:15.808Z,95491.84
2023-02-07T10:10:47.155Z,95493.06
2023-02-07T10:13:58.410Z,95491.28
2023-02-07T10:17:06.856Z,95486.00
2023-02-07T10:19:45.112Z,95485.88
2023-02-07T10:22:56.699Z,95484.97
2023-02-07T10:25:33.978Z,95488.44
2023-02-07T10:28:27.614Z,95475.81
2023-02-07T10:30:56.811Z,95477.22
2023-02-07T10:33:31.554Z,95477.53
2023-02-07T10:36:03.719Z,95478.56
2023-02-07T10:39:08.363Z,95473.94
2023-02-07T10:41:38.853Z,95472.03
2023-02-07T10:44:09.731Z,95467.28
2023-02-07T10:46:38.151Z,95464.81
2023-02-07T10:49:05.085Z,95464.38
2023-02-07T10:51:36.935Z,95470.69
2023-02-07T10:54:09.729Z,95458.91
2023-02-07T10:56:43.050Z,95458.50
2023-02-07T10:59:45.631Z,95448.00
2023-02-07T11:02:37.694Z,95442.63
2023-02-07T11:05:32.731Z,95438.91
2023-02-07T11:08:27.199Z,95433.97
2023-02-07T11:10:56.799Z,95431.00
2023-02-07T11:13:29.329Z,95426.53
2023-02-07T11:16:08.670Z,95430.22
2023-02-07T11:18:43.477Z,95435.84
2023-02-07T11:21:24.112Z,95424.34
2023-02-07T11:23:52.491Z,95425.47
2023-02-07T11:26:21.904Z,95431.34
2023-02-07T11:28:54.163Z,95425.91
2023-02-07T11:31:29.747Z,95431.56
2023-02-07T11:34:08.778Z,95422.88
2023-02-07T11:36:35.433Z,95418.00
2023-02-07T11:39:02.592Z,95414.25
2023-02-07T11:41:32.539Z,95409.44
2023-02-07T11:44:17.492Z,95417.25
2023-02-07T11:46:48.267Z,95402.44
2023-02-07T11:49:37.883Z,95410.88
2023-02-07T11:52:04.988Z,95408.22
2023-02-07T11:54:32.914Z,95414.69
2023-02-07T11:57:27.602Z,95416.53
2023-02-07T12:00:12.893Z,95402.81
2023-02-07T12:02:40.004Z,95401.56
2023-02-07T12:05:28.274Z,95400.97
2023-02-07T12:08:02.533Z,95403.31
2023-02-07T12:10:35.892Z,95405.66
2023-02-07T12:13:13.622Z,95409.03
2023-02-07T12:15:54.830Z,95408.75
2023-02-07T12:18:47.808Z,95400.63
2023-02-07T12:21:43.155Z,95400.84
2023-02-07T12:24:28.254Z,95393.88
2023-02-07T12:27:16.759Z,95405.44
2023-02-07T12:30:02.104Z,95396.56
2023-02-07T12:33:09.675Z,95398.81
2023-02-07T12:35:57.469Z,95388.56
2023-02-07T12:38:28.010Z,95393.53
2023-02-07T12:41:15.556Z,95396.63
2023-02-07T12:43:51.051Z,95395.75
2023-02-07T12:46:37.034Z,95395.00
2023-02-07T12:49:39.912Z,95404.88
2023-02-07T12:52:27.669Z,95401.88
2023-02-07T12:54:54.514Z,95405.22
2023-02-07T12:57:43.564Z,95403.78
2023-02-07T13:00:30.531Z,95404.72
2023-02-07T13:03:26.331Z,95404.22
2023-02-07T13:06:25.043Z,95390.44
2023-02-07T13:09:09.965Z,95399.94
2023-02-07T13:11:57.625Z,95392.63
2023-02-07T13:14:26.904Z,95390.59
2023-02-07T13:17:31.560Z,95391.94
2023-02-07T13:20:27.016Z,95393.75
2023-02-07T13:23:02.572Z,95387.25
2023-02-07T13:25:44.625Z,95392.31
2023-02-07T13:28:34.089Z,95388.16
2023-02-07T13:31:02.594Z,95389.13
2023-02-07T13:33:42.095Z,95385.16
2023-02-07T13:36:17.116Z,95382.78
2023-02-07T13:39:21.265Z,95383.31
2023-02-07T13:42:06.666Z,95382.00
2023-02-07T13:45:11.766Z,95386.47
2023-02-07T13:48:14.661Z,95392.84
2023-02-07T13:50:50.701Z,95385.56
2023-02-07T13:53:46.925Z,95388.44
2023-02-07T13:56:33.762Z,95390.91
2023-02-07T13:59:19.985Z,95385.28
2023-02-07T14:01:54.717Z,95386.91
2023-02-07T14:04:22.997Z,95387.19
2023-02-07T14:07:03.230Z,95384.34
2023-02-07T14:09:37.394Z,95385.34
2023-02-07T14:12:27.504Z,95376.84
2023-02-07T14:15:02.586Z,95375.41
2023-02-07T14:17:29.748Z,95369.84
2023-02-07T14:19:58.285Z,95379.94
2023-02-07T14:22:27.307Z,95392.75
2023-02-07T14:24:59.392Z,95384.75
2023-02-07T14:27:31.115Z,95387.72
2023-02-07T14:30:00.523Z,95389.13
2023-02-07T14:32:37.766Z,95384.06
2023-02-07T14:35:26.430Z,95385.25
2023-02-07T14:38:29.054Z,95387.25
2023-02-07T14:41:10.691Z,95393.91
2023-02-07T14:43:50.560Z,95392.91
2023-02-07T14:46:34.344Z,95393.78
2023-02-07T14:49:13.665Z,95387.28
2023-02-07T14:51:49.452Z,95391.31
2023-02-07T14:54:36.043Z,95394.44
2023-02-07T14:57:21.260Z,95399.13
2023-02-07T15:00:00.414Z,95405.66
2023-02-07T15:02:39.602Z,95401.47
2023-02-07T15:05:29.861Z,95407.34
2023-02-07T15:08:10.028Z,95410.50
2023-02-07T15:10:46.012Z,95399.78
2023-02-07T15:13:42.657Z,95411.22
2023-02-07T15:16:16.459Z,95407.97
2023-02-07T15:18:52.500Z,95404.63
2023-02-07T15:21:38.944Z,95410.72
2023-02-07T15:24:08.887Z,95408.41
2023-02-07T15:26:36.432Z,95408.88
2023-02-07T15:29:06.830Z,95412.44
2023-02-07T15:31:41.148Z,95410.31
2023-02-07T15:34:15.934Z,95413.03
2023-02-07T15:36:45.920Z,95414.31
2023-02-07T15:39:18.532Z,95411.03
2023-02-07T15:41:47.371Z,95414.56
2023-02-07T15:44:26.144Z,95416.47
2023-02-07T15:47:04.239Z,95414.06
2023-02-07T15:49:40.878Z,95414.44
2023-02-07T15:52:16.711Z,95411.59
2023-02-07T15:54:50.026Z,95415.81
2023-02-07T15:57:30.199Z,95415.53
2023-02-07T16:00:02.305Z,95428.59
2023-02-07T16:02:31.889Z,95430.25
2023-02-07T16:05:13.182Z,95428.53
2023-02-07T16:07:40.380Z,95437.34
2023-02-07T16:10:25.460Z,95432.09
2023-02-07T16:13:12.367Z,95435.00
2023-02-07T16:15:51.832Z,95432.16
2023-02-07T16:18:42.763Z,95456.41
2023-02-07T16:21:22.824Z,95453.19
2023-02-07T16:23:52.647Z,95453.78
2023-02-07T16:26:23.701Z,95455.88
2023-02-07T16:28:50.421Z,95448.38
2023-02-07T16:31:17.368Z,95463.25
2023-02-07T16:33:44.245Z,95462.03
2023-02-07T16:36:17.627Z,95455.09
2023-02-07T16:38:45.330Z,95463.78
2023-02-07T16:41:32.856Z,95465.19
2023-02-07T16:44:01.286Z,95463.00
2023-02-07T16:46:30.700Z,95467.44
2023-02-07T16:48:57.555Z,95478.84
2023-02-07T16:51:24.359Z,95470.25
2023-02-07T16:53:51.476Z,95465.56
2023-02-07T16:56:26.945Z,95471.53
2023-02-07T16:58:53.618Z,95471.16
2023-02-07T17:01:21.850Z,95481.97
2023-02-07T17:03:48.777Z,95485.22
2023-02-07T17:06:17.369Z,95480.06
2023-02-07T17:08:44.594Z,95478.94
2023-02-07T17:11:17.205Z,95476.47
2023-02-07T17:13:43.805Z,95478.63
2023-02-07T17:16:13.832Z,95477.84
2023-02-07T17:18:41.199Z,95488.75
2023-02-07T17:21:09.068Z,95500.41
2023-02-07T17:23:36.494Z,95495.97
2023-02-07T17:26:05.202Z,95509.31
2023-02-07T17:28:32.879Z,95505.81
2023-02-07T17:30:59.689Z,95506.06
2023-02-07T17:33:26.414Z,95513.66
2023-02-07T17:35:53.024Z,95524.03
2023-02-07T17:38:19.693Z,95513.38
2023-02-07T17:40:47.007Z,95518.88
2023-02-07T17:43:13.676Z,95530.41
2023-02-07T17:45:40.464Z,95520.38
2023-02-07T17:48:07.172Z,95525.28
2023-02-07T17:50:37.398Z,95521.47
2023-02-07T17:53:04.488Z,95528.19
2023-02-07T17:55:32.402Z,95526.66
2023-02-07T17:57:59.834Z,95525.75
2023-02-07T18:00:36.782Z,95521.00
2023-02-07T18:03:04.777Z,95523.88
2023-02-07T18:05:31.598Z,95523.06
2023-02-07T18:07:58.983Z,95532.28
2023-02-07T18:10:31.852Z,95524.56
2023-02-07T18:12:59.243Z,95522.84
2023-02-07T18:15:27.521Z,95534.03
2023-02-07T18:17:55.223Z,95530.84
2023-02-07T18:20:28.045Z,95536.91
2023-02-07T18:22:56.823Z,95535.06
2023-02-07T18:25:25.016Z,95543.34
2023-02-07T18:27:52.020Z,95539.94
2023-02-07T18:30:20.068Z,95541.34
2023-02-07T18:32:46.813Z,95538.69
2023-02-07T18:35:13.524Z,95541.50
2023-02-07T18:37:40.210Z,95545.50
2023-02-07T18:40:08.338Z,95533.56
2023-02-07T18:42:35.050Z,95548.44
2023-02-07T18:45:02.309Z,95544.47
2023-02-07T18:47:28.958Z,95547.63
2023-02-07T18:50:00.338Z,95549.47
2023-02-07T18:52:27.042Z,95551.59
2023-02-07T18:54:53.665Z,95556.25
2023-02-07T18:57:20.368Z,95558.84
2023-02-07T18:59:47.026Z,95562.13
2023-02-07T19:02:14.660Z,95562.81
2023-02-07T19:04:41.750Z,95563.59
2023-02-07T19:07:08.321Z,95558.19
2023-02-07T19:09:35.121Z,95570.03
2023-02-07T19:12:01.891Z,95563.06
2023-02-07T19:14:33.324Z,95560.44
2023-02-07T19:17:00.126Z,95554.72
2023-02-07T19:19:29.638Z,95559.31
2023-02-07T19:21:57.798Z,95566.75
2023-02-07T19:24:26.002Z,95563.88
2023-02-07T19:26:56.742Z,95558.66
2023-02-07T19:29:29.499Z,95562.88
2023-02-07T19:32:06.650Z,95562.97
2023-02-07T19:34:33.757Z,95559.00
2023-02-07T19:37:00.524Z,95553.09
2023-02-07T19:39:27.190Z,95571.22
2023-02-07T19:41:53.906Z,95568.91
2023-02-07T19:44:21.027Z,95563.50
2023-02-07T19:46:47.764Z,95567.66
2023-02-07T19:49:15.029Z,95568.22
2023-02-07T19:51:41.984Z,95568.22
2023-02-07T19:54:09.004Z,95568.69
2023-02-07T19:56:36.704Z,95579.47
2023-02-07T19:59:06.064Z,95574.47
2023-02-07T20:01:34.659Z,95571.66
2023-02-07T20:04:05.420Z,95575.59
2023-02-07T20:06:34.413Z,95575.47
2023-02-07T20:09:06.077Z,95578.00
2023-02-07T20:11:33.085Z,95579.56
2023-02-07T20:14:03.285Z,95580.34
2023-02-07T20:16:34.024Z,95577.22
2023-02-07T20:19:01.302Z,95580.72
2023-02-07T20:21:30.054Z,95590.97
2023-02-07T20:23:57.751Z,95597.00
2023-02-07T20:26:30.359Z,95585.28
2023-02-07T20:29:02.006Z,95593.63
2023-02-07T20:31:30.969Z,95595.88
2023-02-07T20:33:58.216Z,95592.44
2023-02-07T20:36:25.859Z,95603.56
2023-02-07T20:38:53.115Z,95585.63
2023-02-07T20:41:31.290Z,95598.50
2023-02-07T20:44:04.900Z,95589.69
2023-02-07T20:46:33.856Z,95598.59
2023-02-07T20:49:03.126Z,95593.34
2023-02-07T20:51:30.729Z,95593.63
2023-02-07T20:53:59.553Z,95595.66
2023-02-07T20:56:27.766Z,95592.22
2023-02-07T20:58:55.020Z,95599.97
2023-02-07T21:01:23.758Z,95596.38
2023-02-07T21:03:51.839Z,95594.44
2023-02-07T21:06:19.189Z,95598.09
2023-02-07T21:08:46.305Z,95598.16
2023-02-07T21:11:13.080Z,95600.59
2023-02-07T21:13:39.803Z,95590.03
2023-02-07T21:16:07.815Z,95599.75
2023-02-07T21:18:35.181Z,95591.19
2023-02-07T21:21:06.529Z,95598.16
2023-02-07T21:23:33.721Z,95598.13
2023-02-07T21:26:08.148Z,95600.31
2023-02-07T21:28:35.698Z,95606.22
2023-02-07T21:31:14.742Z,95602.00
2023-02-07T21:33:41.619Z,95605.09
2023-02-07T21:36:11.782Z,95597.81
2023-02-07T21:38:40.058Z,95602.59
2023-02-07T21:41:11.394Z,95608.09
2023-02-07T21:43:42.914Z,95613.31
2023-02-07T21:46:10.921Z,95600.94
2023-02-07T21:48:39.683Z,95603.63
2023-02-07T21:51:09.304Z,95604.09
2023-02-07T21:53:36.925Z,95611.13
2023-02-07T21:56:07.581Z,95605.00
2023-02-07T21:58:34.977Z,95612.84
2023-02-07T22:01:18.418Z,95606.91
2023-02-07T22:03:47.684Z,95615.72
2023-02-07T22:06:15.874Z,95615.94
2023-02-07T22:08:47.916Z,95607.84
2023-02-07T22:11:15.012Z,95613.97
2023-02-07T22:13:43.148Z,95626.19
2023-02-07T22:16:11.627Z,95622.47
2023-02-07T22:18:41.184Z,95628.81
2023-02-07T22:21:11.322Z,95620.41
2023-02-07T22:23:37.936Z,95628.75
2023-02-07T22:26:04.874Z,95631.16
2023-02-07T22:28:31.895Z,95639.94
2023-02-07T22:30:59.284Z,95634.53
2023-02-07T22:33:26.624Z,95622.34
2023-02-07T22:35:53.294Z,95631.78
2023-02-07T22:38:19.994Z,95629.56
2023-02-07T22:40:46.612Z,95630.75
2023-02-07T22:43:15.914Z,95642.63
2023-02-07T22:45:46.128Z,95630.34
2023-02-07T22:48:14.874Z,95632.03
2023-02-07T22:50:42.764Z,95635.41
2023-02-07T22:53:11.612Z,95626.31
2023-02-07T22:55:41.441Z,95635.13
2023-02-07T22:58:08.588Z,95639.69
2023-02-07T23:00:35.284Z,95641.09
2023-02-07T23:03:02.079Z,95639.69
2023-02-07T23:05:28.733Z,95642.38
2023-02-07T23:07:55.473Z,95641.44
2023-02-07T23:10:22.082Z,95639.91
2023-02-07T23:12:48.753Z,95641.22
2023-02-07T23:15:15.400Z,95640.13
2023-02-07T23:17:42.097Z,95632.34
2023-02-07T23:20:09.301Z,95629.53
2023-02-07T23:22:38.087Z,95635.13
2023-02-07T23:25:06.221Z,95627.63
2023-02-07T23:27:33.504Z,95628.16
2023-02-07T23:30:00.195Z,95628.50
2023-02-07T23:32:27.088Z,95628.63
2023-02-07T23:34:53.827Z,95624.75
2023-02-07T23:37:22.431Z,95628.03
2023-02-07T23:39:49.491Z,95623.81
2023-02-07T23:42:16.232Z,95621.09
2023-02-07T23:44:42.865Z,95609.53
2023-02-07T23:47:09.559Z,95620.88
2023-02-07T23:49:36.440Z,95618.75
2023-02-07T23:52:03.165Z,95614.78
2023-02-07T23:54:29.828Z,95611.00
2023-02-07T23:56:56.400Z,95607.91
2023-02-07T23:59:22.989Z,95616.19
